createdAt,value
2017-12-29T00:01:18.293Z,10.30
2017-12-29T00:03:46.469Z,9.67
2017-12-29T00:06:14.610Z,10.50
2017-12-29T00:08:43.538Z,11.43
2017-12-29T00:11:11.681Z,11.10
2017-12-29T00:13:39.890Z,9.20
2017-12-29T00:16:08.052Z,10.43
2017-12-29T00:18:36.226Z,9.60
2017-12-29T00:21:04.371Z,10.20
2017-12-29T00:23:32.568Z,10.50
2017-12-29T00:26:00.739Z,10.70
2017-12-29T00:28:28.948Z,9.77
2017-12-29T00:30:57.097Z,11.17
2017-12-29T00:33:25.304Z,11.90
2017-12-29T00:35:54.311Z,10.57
2017-12-29T00:38:23.258Z,12.40
2017-12-29T00:40:51.401Z,10.40
2017-12-29T00:43:20.356Z,10.73
2017-12-29T00:45:48.525Z,11.00
2017-12-29T00:48:16.722Z,10.87
2017-12-29T00:50:45.675Z,9.90
2017-12-29T00:53:13.816Z,11.70
2017-12-29T00:55:42.010Z,10.93
2017-12-29T00:58:10.163Z,10.50
2017-12-29T01:00:38.321Z,11.77
2017-12-29T01:03:07.230Z,11.80
2017-12-29T01:05:35.410Z,10.53
2017-12-29T01:08:03.590Z,10.10
2017-12-29T01:10:31.777Z,10.63
2017-12-29T01:12:59.936Z,10.80
2017-12-29T01:15:28.122Z,11.20
2017-12-29T01:17:56.275Z,10.80
2017-12-29T01:20:24.462Z,10.03
2017-12-29T01:22:52.629Z,10.87
2017-12-29T01:25:20.809Z,10.00
2017-12-29T01:27:48.964Z,10.23
2017-12-29T01:30:17.908Z,10.83
2017-12-29T01:32:46.044Z,10.60
2017-12-29T01:35:14.241Z,9.60
2017-12-29T01:37:42.384Z,11.17
2017-12-29T01:40:10.563Z,11.47
2017-12-29T01:42:38.709Z,10.00
2017-12-29T01:45:07.665Z,10.70
2017-12-29T01:47:47.441Z,9.87
2017-12-29T01:50:15.600Z,10.90
2017-12-29T01:52:43.745Z,10.60
2017-12-29T01:55:11.947Z,10.80
2017-12-29T01:57:40.092Z,9.60
2017-12-29T02:00:08.244Z,10.50
2017-12-29T02:02:36.465Z,10.60
2017-12-29T02:05:04.690Z,10.37
2017-12-29T02:07:32.851Z,11.30
2017-12-29T02:10:01.018Z,10.00
2017-12-29T02:12:29.950Z,9.80
2017-12-29T02:14:58.123Z,10.60
2017-12-29T02:17:26.297Z,9.43
2017-12-29T02:19:54.442Z,9.63
2017-12-29T02:22:22.610Z,9.40
2017-12-29T02:24:51.507Z,9.67
2017-12-29T02:27:19.679Z,9.60
2017-12-29T02:29:47.825Z,9.23
2017-12-29T02:32:16.007Z,8.87
2017-12-29T02:34:44.182Z,9.60
2017-12-29T02:37:12.346Z,10.40
2017-12-29T02:39:40.559Z,9.20
2017-12-29T02:42:08.740Z,10.80
2017-12-29T02:44:36.882Z,9.63
2017-12-29T02:47:05.873Z,8.57
2017-12-29T02:49:34.797Z,9.07
2017-12-29T02:52:02.972Z,9.37
2017-12-29T02:54:31.145Z,9.60
2017-12-29T02:56:59.328Z,8.60
2017-12-29T02:59:27.465Z,9.03
2017-12-29T03:01:56.394Z,9.50
2017-12-29T03:04:24.539Z,8.97
2017-12-29T03:06:53.470Z,8.40
2017-12-29T03:09:21.610Z,9.77
2017-12-29T03:11:49.751Z,8.90
2017-12-29T03:14:17.921Z,8.50
2017-12-29T03:16:46.081Z,8.00
2017-12-29T03:19:14.267Z,7.87
2017-12-29T03:21:42.404Z,8.40
2017-12-29T03:24:10.580Z,8.60
2017-12-29T03:26:38.720Z,7.50
2017-12-29T03:29:06.954Z,8.80
2017-12-29T03:31:35.119Z,8.37
2017-12-29T03:34:04.126Z,7.70
2017-12-29T03:36:33.945Z,11.47
2017-12-29T03:39:02.461Z,8.53
2017-12-29T03:41:31.381Z,8.07
2017-12-29T03:43:59.569Z,7.63
2017-12-29T03:46:27.706Z,7.70
2017-12-29T03:48:56.621Z,8.60
2017-12-29T03:51:24.772Z,8.00
2017-12-29T03:53:53.719Z,7.20
2017-12-29T03:56:21.863Z,8.20
2017-12-29T03:58:50.012Z,8.03
2017-12-29T04:01:18.914Z,7.70
2017-12-29T04:03:47.065Z,8.63
2017-12-29T04:06:15.224Z,7.70
2017-12-29T04:08:44.182Z,7.07
2017-12-29T04:11:12.336Z,7.33
2017-12-29T04:13:40.519Z,7.40
2017-12-29T04:16:08.684Z,6.37
2017-12-29T04:18:36.865Z,6.83
2017-12-29T04:21:05.769Z,7.13
2017-12-29T04:23:33.954Z,8.50
2017-12-29T04:26:02.385Z,7.70
2017-12-29T04:28:31.430Z,7.60
2017-12-29T04:31:00.453Z,7.73
2017-12-29T04:33:29.570Z,7.60
2017-12-29T04:35:57.708Z,7.30
2017-12-29T04:38:26.908Z,7.53
2017-12-29T04:40:55.048Z,7.40
2017-12-29T04:43:23.221Z,7.10
2017-12-29T04:45:51.375Z,7.67
2017-12-29T04:48:19.623Z,6.93
2017-12-29T04:50:47.786Z,6.33
2017-12-29T04:53:17.481Z,7.00
2017-12-29T04:55:45.641Z,7.73
2017-12-29T04:58:13.794Z,6.60
2017-12-29T05:00:42.753Z,7.60
2017-12-29T05:03:10.951Z,7.80
2017-12-29T05:05:39.102Z,7.50
2017-12-29T05:08:07.277Z,7.13
2017-12-29T05:10:35.489Z,7.43
2017-12-29T05:13:03.868Z,7.53
2017-12-29T05:15:32.126Z,7.60
2017-12-29T05:18:01.227Z,7.43
2017-12-29T05:20:29.657Z,6.70
2017-12-29T05:22:57.834Z,8.10
2017-12-29T05:25:26.003Z,6.70
2017-12-29T05:27:56.596Z,8.23
2017-12-29T05:30:25.535Z,7.37
2017-12-29T05:32:53.690Z,6.50
2017-12-29T05:35:21.870Z,6.60
2017-12-29T05:37:50.034Z,6.23
2017-12-29T05:40:18.979Z,5.73
2017-12-29T05:42:47.137Z,7.43
2017-12-29T05:45:15.319Z,5.10
2017-12-29T05:47:43.482Z,6.63
2017-12-29T05:50:11.685Z,5.80
2017-12-29T05:52:41.654Z,5.97
2017-12-29T05:55:09.836Z,6.23
2017-12-29T05:57:37.977Z,7.70
2017-12-29T06:00:06.162Z,5.53
2017-12-29T06:02:37.112Z,5.80
2017-12-29T06:05:06.113Z,5.27
2017-12-29T06:07:34.272Z,5.97
2017-12-29T06:10:03.215Z,6.10
2017-12-29T06:12:31.389Z,4.80
2017-12-29T06:14:59.580Z,6.10
2017-12-29T06:17:27.778Z,6.07
2017-12-29T06:19:58.191Z,4.87
2017-12-29T06:22:26.342Z,6.23
2017-12-29T06:24:57.071Z,5.20
2017-12-29T06:27:25.266Z,6.10
2017-12-29T06:29:53.429Z,5.33
2017-12-29T06:32:21.624Z,5.47
2017-12-29T06:34:49.788Z,6.00
2017-12-29T06:37:19.912Z,6.10
2017-12-29T06:39:48.032Z,5.27
2017-12-29T06:42:16.979Z,5.10
2017-12-29T06:44:45.123Z,4.43
2017-12-29T06:47:13.281Z,6.03
2017-12-29T06:49:41.529Z,4.50
2017-12-29T06:52:10.500Z,5.10
2017-12-29T06:54:38.654Z,5.13
2017-12-29T06:57:06.987Z,5.33
2017-12-29T06:59:35.896Z,4.80
2017-12-29T07:02:06.672Z,5.43
2017-12-29T07:07:08.696Z,4.43
2017-12-29T07:09:36.823Z,5.43
2017-12-29T07:12:05.001Z,5.20
2017-12-29T07:14:33.164Z,8.10
2017-12-29T07:17:01.705Z,5.13
2017-12-29T07:19:30.022Z,5.57
2017-12-29T07:21:58.244Z,7.17
2017-12-29T07:24:26.395Z,6.50
2017-12-29T07:26:54.565Z,6.47
2017-12-29T07:29:22.722Z,6.67
2017-12-29T07:31:50.971Z,5.30
2017-12-29T07:34:19.884Z,4.90
2017-12-29T07:36:48.105Z,5.77
2017-12-29T07:39:16.242Z,5.10
2017-12-29T07:41:44.663Z,6.17
2017-12-29T07:44:13.121Z,5.43
2017-12-29T07:46:41.340Z,5.40
2017-12-29T07:49:09.642Z,5.67
2017-12-29T07:51:37.797Z,5.10
2017-12-29T07:54:07.403Z,5.40
2017-12-29T07:56:36.345Z,5.30
2017-12-29T07:59:05.409Z,5.07
2017-12-29T08:01:33.566Z,4.73
2017-12-29T08:04:01.752Z,5.30
2017-12-29T08:06:30.649Z,4.67
2017-12-29T08:08:58.809Z,4.63
2017-12-29T08:11:26.977Z,5.00
2017-12-29T08:13:55.188Z,5.20
2017-12-29T08:16:23.338Z,5.53
2017-12-29T08:18:52.270Z,5.40
2017-12-29T08:21:20.437Z,6.00
2017-12-29T08:23:48.605Z,5.47
2017-12-29T08:26:16.763Z,5.17
2017-12-29T08:28:44.964Z,5.10
2017-12-29T08:31:13.120Z,5.45
2017-12-29T08:33:41.274Z,5.57
2017-12-29T08:36:10.173Z,4.93
2017-12-29T08:38:38.361Z,5.10
2017-12-29T08:41:06.513Z,5.57
2017-12-29T08:43:34.695Z,4.70
2017-12-29T08:46:02.871Z,5.43
2017-12-29T08:48:31.021Z,5.63
2017-12-29T08:50:59.930Z,4.77
2017-12-29T08:53:28.096Z,6.07
2017-12-29T08:55:56.244Z,7.03
2017-12-29T08:58:24.416Z,6.13
2017-12-29T09:00:52.556Z,5.37
2017-12-29T09:03:20.774Z,5.27
2017-12-29T09:05:49.854Z,5.73
2017-12-29T09:08:18.020Z,5.23
2017-12-29T09:10:46.188Z,5.23
2017-12-29T09:13:16.556Z,6.57
2017-12-29T09:15:44.844Z,5.20
2017-12-29T09:18:13.900Z,5.50
2017-12-29T09:20:42.052Z,5.63
2017-12-29T09:23:10.222Z,5.13
2017-12-29T09:25:38.453Z,4.83
2017-12-29T09:28:06.690Z,5.63
2017-12-29T09:30:34.916Z,5.00
2017-12-29T09:33:03.117Z,5.33
2017-12-29T09:35:32.016Z,4.77
2017-12-29T09:38:00.202Z,4.90
2017-12-29T09:40:29.563Z,4.70
2017-12-29T09:42:57.767Z,4.37
2017-12-29T09:45:25.922Z,4.37
2017-12-29T09:47:54.132Z,4.10
2017-12-29T09:50:23.087Z,3.93
2017-12-29T09:52:51.257Z,4.20
2017-12-29T09:55:19.423Z,4.37
2017-12-29T09:57:47.644Z,4.17
2017-12-29T10:00:15.812Z,4.50
2017-12-29T10:02:44.002Z,7.90
2017-12-29T10:05:12.157Z,4.37
2017-12-29T10:07:40.374Z,3.63
2017-12-29T10:10:08.543Z,4.90
2017-12-29T10:12:37.517Z,3.53
2017-12-29T10:15:06.487Z,3.53
2017-12-29T10:17:34.627Z,3.10
2017-12-29T10:20:03.576Z,3.10
2017-12-29T10:22:31.756Z,3.43
2017-12-29T10:24:59.954Z,3.50
2017-12-29T10:27:28.886Z,3.20
2017-12-29T10:29:57.066Z,3.07
2017-12-29T10:32:25.219Z,3.70
2017-12-29T10:34:53.392Z,2.97
2017-12-29T10:37:21.523Z,2.77
2017-12-29T10:39:49.701Z,3.30
2017-12-29T10:42:18.659Z,3.07
2017-12-29T10:44:46.860Z,3.77
2017-12-29T10:47:15.003Z,3.20
2017-12-29T10:49:43.216Z,3.43
2017-12-29T10:52:11.383Z,4.30
2017-12-29T10:54:39.648Z,3.73
2017-12-29T10:57:07.859Z,3.33
2017-12-29T10:59:36.812Z,3.60
2017-12-29T11:02:05.053Z,3.70
2017-12-29T11:04:33.228Z,3.37
2017-12-29T11:07:01.381Z,3.80
2017-12-29T11:09:30.362Z,3.30
2017-12-29T11:11:58.515Z,3.80
2017-12-29T11:14:26.703Z,4.03
2017-12-29T11:16:54.844Z,3.23
2017-12-29T11:19:23.012Z,3.60
2017-12-29T11:21:51.165Z,4.47
2017-12-29T11:24:19.465Z,3.40
2017-12-29T11:26:47.643Z,3.30
2017-12-29T11:29:15.868Z,3.40
2017-12-29T11:31:44.921Z,3.40
2017-12-29T11:34:13.088Z,3.23
2017-12-29T11:36:41.435Z,3.73
2017-12-29T11:39:09.697Z,3.27
2017-12-29T11:41:37.871Z,3.43
2017-12-29T11:44:06.100Z,3.50
2017-12-29T11:46:34.525Z,2.90
2017-12-29T11:49:03.431Z,4.47
2017-12-29T11:51:31.568Z,4.90
2017-12-29T11:53:59.896Z,3.10
2017-12-29T11:56:28.098Z,3.20
2017-12-29T11:58:56.249Z,4.37
2017-12-29T12:01:24.435Z,6.20
2017-12-29T12:03:52.704Z,3.50
2017-12-29T12:06:20.835Z,3.40
2017-12-29T12:08:49.781Z,3.30
2017-12-29T12:11:18.697Z,3.40
2017-12-29T12:13:46.844Z,4.50
2017-12-29T12:16:15.012Z,3.97
2017-12-29T12:18:43.173Z,4.20
2017-12-29T12:21:11.459Z,5.10
2017-12-29T12:23:39.602Z,3.20
2017-12-29T12:26:07.734Z,3.60
2017-12-29T12:28:35.917Z,3.37
2017-12-29T12:31:04.047Z,3.67
2017-12-29T12:33:32.267Z,3.13
2017-12-29T12:36:00.446Z,3.83
2017-12-29T12:38:28.600Z,4.20
2017-12-29T12:40:56.772Z,3.63
2017-12-29T12:43:24.914Z,5.33
2017-12-29T12:45:53.090Z,4.80
2017-12-29T12:48:21.240Z,3.60
2017-12-29T12:50:49.443Z,4.33
2017-12-29T12:53:17.575Z,3.43
2017-12-29T12:55:45.752Z,3.40
2017-12-29T12:58:13.908Z,3.87
2017-12-29T13:00:42.115Z,3.50
2017-12-29T13:03:10.263Z,3.53
2017-12-29T13:05:38.893Z,3.57
2017-12-29T13:08:07.023Z,4.07
2017-12-29T13:10:35.171Z,3.93
2017-12-29T13:13:03.927Z,3.70
2017-12-29T13:15:33.138Z,4.10
2017-12-29T13:18:01.767Z,3.90
2017-12-29T13:20:30.028Z,3.50
2017-12-29T13:22:58.236Z,4.50
2017-12-29T13:25:26.390Z,4.27
2017-12-29T13:27:54.547Z,4.53
2017-12-29T13:30:22.752Z,3.90
2017-12-29T13:32:50.987Z,13.30
2017-12-29T13:35:19.200Z,3.33
2017-12-29T13:37:47.332Z,4.23
2017-12-29T13:40:15.481Z,3.83
2017-12-29T13:42:43.657Z,3.40
2017-12-29T13:45:11.817Z,3.30
2017-12-29T13:47:40.783Z,4.13
2017-12-29T13:50:09.161Z,3.53
2017-12-29T13:52:37.324Z,4.30
2017-12-29T13:55:05.580Z,3.63
2017-12-29T13:57:33.722Z,4.27
2017-12-29T14:00:01.946Z,4.17
2017-12-29T14:02:36.681Z,4.30
2017-12-29T14:05:05.218Z,4.10
2017-12-29T14:07:33.531Z,4.67
2017-12-29T14:10:01.731Z,4.73
2017-12-29T14:12:29.876Z,4.30
2017-12-29T14:14:58.218Z,20.00
2017-12-29T14:17:27.211Z,4.90
2017-12-29T14:19:55.367Z,4.40
2017-12-29T14:22:23.534Z,4.10
2017-12-29T14:24:52.478Z,3.83
2017-12-29T14:27:20.638Z,3.73
2017-12-29T14:29:48.826Z,4.53
2017-12-29T14:32:16.973Z,3.60
2017-12-29T14:34:45.172Z,3.37
2017-12-29T14:37:13.327Z,3.77
2017-12-29T14:39:41.482Z,3.50
2017-12-29T14:42:10.411Z,3.10
2017-12-29T14:44:38.601Z,3.23
2017-12-29T14:47:06.757Z,3.53
2017-12-29T14:49:34.946Z,3.00
2017-12-29T14:52:03.568Z,3.13
2017-12-29T14:54:31.741Z,3.10
2017-12-29T14:57:00.658Z,3.30
2017-12-29T14:59:28.848Z,3.60
2017-12-29T15:01:56.994Z,4.10
2017-12-29T15:04:25.951Z,3.50
2017-12-29T15:06:54.108Z,3.10
2017-12-29T15:09:22.276Z,3.47
2017-12-29T15:11:50.449Z,3.70
2017-12-29T15:14:18.581Z,3.37
2017-12-29T15:16:46.780Z,3.17
2017-12-29T15:19:14.953Z,3.30
2017-12-29T15:21:43.921Z,3.93
2017-12-29T15:24:12.550Z,3.10
2017-12-29T15:26:40.795Z,3.40
2017-12-29T15:29:08.972Z,4.07
2017-12-29T15:31:37.911Z,3.60
2017-12-29T15:34:06.082Z,4.10
2017-12-29T15:36:34.421Z,3.70
2017-12-29T15:39:02.823Z,3.53
2017-12-29T15:41:31.039Z,3.60
2017-12-29T15:43:59.310Z,3.40
2017-12-29T15:46:27.487Z,3.17
2017-12-29T15:48:56.406Z,2.90
2017-12-29T15:51:30.479Z,3.20
2017-12-29T15:53:58.643Z,3.03
2017-12-29T15:56:26.803Z,2.80
2017-12-29T15:58:55.077Z,2.97
2017-12-29T16:01:26.720Z,2.97
2017-12-29T16:03:54.958Z,2.90
2017-12-29T16:06:23.182Z,2.50
2017-12-29T16:08:51.478Z,2.13
2017-12-29T16:11:20.472Z,2.80
2017-12-29T16:13:48.642Z,3.03
2017-12-29T16:16:16.868Z,2.80
2017-12-29T16:18:45.094Z,2.50
2017-12-29T16:21:13.255Z,2.53
2017-12-29T16:23:41.445Z,2.57
2017-12-29T16:26:09.764Z,3.17
2017-12-29T16:28:38.707Z,3.00
2017-12-29T16:31:07.025Z,3.00
2017-12-29T16:33:35.972Z,2.67
2017-12-29T16:36:04.379Z,2.75
2017-12-29T16:38:32.543Z,2.23
2017-12-29T16:41:00.731Z,2.90
2017-12-29T16:43:28.871Z,2.97
2017-12-29T16:45:57.058Z,3.40
2017-12-29T16:48:25.220Z,2.90
2017-12-29T16:50:53.419Z,3.03
2017-12-29T16:53:21.628Z,2.60
2017-12-29T16:55:50.595Z,2.83
2017-12-29T16:58:18.744Z,2.73
2017-12-29T17:00:46.923Z,2.80
2017-12-29T17:03:15.070Z,3.00
2017-12-29T17:05:43.232Z,2.80
2017-12-29T17:08:11.377Z,2.97
2017-12-29T17:10:40.324Z,3.40
2017-12-29T17:13:08.468Z,2.70
2017-12-29T17:15:36.633Z,3.07
2017-12-29T17:18:05.566Z,3.60
2017-12-29T17:20:33.728Z,3.83
2017-12-29T17:23:01.886Z,3.70
2017-12-29T17:25:30.322Z,3.17
2017-12-29T17:27:58.464Z,3.43
2017-12-29T17:30:26.797Z,3.30
2017-12-29T17:32:55.713Z,3.47
2017-12-29T17:35:24.997Z,3.40
2017-12-29T17:37:53.153Z,3.53
2017-12-29T17:40:21.972Z,3.17
2017-12-29T17:42:50.131Z,3.23
2017-12-29T17:45:18.284Z,3.60
2017-12-29T17:47:47.389Z,3.60
2017-12-29T17:50:16.307Z,3.40
2017-12-29T17:52:44.480Z,3.60
2017-12-29T17:55:12.621Z,4.60
2017-12-29T17:57:40.801Z,3.90
2017-12-29T18:00:08.939Z,3.80
2017-12-29T18:02:39.887Z,4.80
2017-12-29T18:05:08.039Z,4.80
2017-12-29T18:07:36.216Z,4.60
2017-12-29T18:10:05.194Z,4.13
2017-12-29T18:12:33.362Z,4.10
2017-12-29T18:15:01.519Z,3.83
2017-12-29T18:17:29.705Z,4.57
2017-12-29T18:19:58.042Z,5.10
2017-12-29T18:22:26.227Z,4.17
2017-12-29T18:24:55.233Z,4.77
2017-12-29T18:27:24.186Z,4.80
2017-12-29T18:29:52.393Z,5.10
2017-12-29T18:32:21.721Z,5.13
2017-12-29T18:34:49.885Z,4.83
2017-12-29T18:37:18.087Z,5.07
2017-12-29T18:39:46.310Z,4.30
2017-12-29T18:42:15.327Z,5.20
2017-12-29T18:44:43.475Z,4.77
2017-12-29T18:47:11.623Z,5.07
2017-12-29T18:49:39.787Z,7.13
2017-12-29T18:52:07.955Z,5.20
2017-12-29T18:54:36.084Z,4.90
2017-12-29T18:57:05.308Z,5.47
2017-12-29T18:59:34.203Z,6.27
2017-12-29T19:02:02.425Z,5.90
2017-12-29T19:04:31.950Z,5.70
2017-12-29T19:07:00.115Z,6.30
2017-12-29T19:09:28.388Z,6.03
2017-12-29T19:11:56.733Z,5.50
2017-12-29T19:14:25.378Z,6.57
2017-12-29T19:16:53.583Z,5.53
2017-12-29T19:19:21.777Z,4.63
2017-12-29T19:21:49.948Z,5.73
2017-12-29T19:24:18.207Z,5.00
2017-12-29T19:26:46.391Z,4.50
2017-12-29T19:29:14.529Z,5.83
2017-12-29T19:31:43.555Z,5.80
2017-12-29T19:34:11.806Z,5.50
2017-12-29T19:36:40.685Z,5.50
2017-12-29T19:39:09.583Z,5.13
2017-12-29T19:41:37.876Z,5.13
2017-12-29T19:44:06.217Z,5.47
2017-12-29T19:46:34.424Z,6.40
2017-12-29T19:49:03.351Z,5.60
2017-12-29T19:51:31.592Z,5.80
2017-12-29T19:53:59.739Z,5.60
2017-12-29T19:56:27.893Z,5.07
2017-12-29T19:58:56.141Z,6.67
2017-12-29T20:01:24.419Z,6.13
2017-12-29T20:03:52.582Z,5.27
2017-12-29T20:06:20.717Z,6.40
2017-12-29T20:08:49.650Z,5.33
2017-12-29T20:11:17.800Z,5.80
2017-12-29T20:13:46.009Z,5.73
2017-12-29T20:16:16.516Z,5.50
2017-12-29T20:18:46.446Z,5.97
2017-12-29T20:21:14.631Z,5.73
2017-12-29T20:23:42.860Z,6.47
2017-12-29T20:26:12.071Z,6.17
2017-12-29T20:28:41.177Z,6.10
2017-12-29T20:31:09.321Z,6.20
2017-12-29T20:33:38.287Z,6.27
2017-12-29T20:36:07.873Z,5.60
2017-12-29T20:38:36.228Z,5.67
2017-12-29T20:41:04.661Z,5.90
2017-12-29T20:43:33.173Z,6.20
2017-12-29T20:46:01.364Z,7.00
2017-12-29T20:48:29.529Z,6.10
2017-12-29T20:50:57.809Z,5.87
2017-12-29T20:53:26.040Z,6.63
2017-12-29T20:55:54.192Z,6.07
2017-12-29T20:58:22.379Z,7.33
2017-12-29T21:00:51.297Z,7.50
2017-12-29T21:03:19.467Z,6.87
2017-12-29T21:05:47.618Z,6.40
2017-12-29T21:08:16.651Z,7.67
2017-12-29T21:10:45.587Z,6.20
2017-12-29T21:13:13.778Z,6.50
2017-12-29T21:15:41.988Z,6.00
2017-12-29T21:18:11.173Z,6.40
2017-12-29T21:20:39.525Z,7.73
2017-12-29T21:23:07.771Z,6.90
2017-12-29T21:25:35.910Z,6.90
2017-12-29T21:28:04.997Z,7.97
2017-12-29T21:30:33.152Z,6.40
2017-12-29T21:33:01.320Z,7.00
2017-12-29T21:35:30.337Z,7.20
2017-12-29T21:37:58.507Z,6.63
2017-12-29T21:40:26.661Z,7.00
2017-12-29T21:42:54.846Z,6.60
2017-12-29T21:45:22.987Z,6.83
2017-12-29T21:47:51.142Z,7.73
2017-12-29T21:50:20.051Z,6.63
2017-12-29T21:52:48.210Z,7.20
2017-12-29T21:55:16.348Z,6.50
2017-12-29T21:57:44.504Z,8.50
2017-12-29T22:00:12.650Z,7.57
2017-12-29T22:02:40.808Z,7.03
2017-12-29T22:05:08.948Z,7.47
2017-12-29T22:07:37.107Z,7.23
2017-12-29T22:10:06.026Z,6.97
2017-12-29T22:12:34.198Z,8.10
2017-12-29T22:15:02.325Z,6.40
2017-12-29T22:17:30.521Z,7.07
2017-12-29T22:19:58.655Z,7.50
2017-12-29T22:22:26.829Z,8.40
2017-12-29T22:24:54.960Z,7.27
2017-12-29T22:27:23.112Z,6.23
2017-12-29T22:29:51.271Z,6.80
2017-12-29T22:32:19.396Z,7.37
2017-12-29T22:34:48.333Z,6.53
2017-12-29T22:37:16.501Z,7.40
2017-12-29T22:39:44.675Z,7.10
2017-12-29T22:42:12.849Z,6.93
2017-12-29T22:44:41.041Z,7.07
2017-12-29T22:47:09.187Z,6.23
2017-12-29T22:49:37.340Z,7.17
2017-12-29T22:52:06.239Z,7.30
2017-12-29T22:54:35.166Z,6.13
2017-12-29T22:57:04.043Z,8.13
2017-12-29T22:59:32.217Z,7.77
2017-12-29T23:02:00.359Z,6.97
2017-12-29T23:04:29.285Z,7.60
2017-12-29T23:06:57.418Z,7.60
2017-12-29T23:09:25.567Z,6.77
2017-12-29T23:11:53.707Z,7.53
2017-12-29T23:14:21.854Z,7.77
2017-12-29T23:16:51.833Z,7.00
2017-12-29T23:19:19.999Z,6.60
2017-12-29T23:21:48.166Z,8.77
2017-12-29T23:24:16.345Z,7.57
2017-12-29T23:26:44.485Z,8.77
2017-12-29T23:29:12.636Z,7.30
2017-12-29T23:31:41.544Z,7.90
2017-12-29T23:34:10.230Z,10.80
2017-12-29T23:36:38.398Z,9.10
2017-12-29T23:39:06.580Z,9.10
2017-12-29T23:41:34.735Z,10.00
2017-12-29T23:44:03.359Z,9.03
2017-12-29T23:46:31.529Z,8.80
2017-12-29T23:48:59.693Z,10.17
2017-12-29T23:51:27.837Z,9.37
2017-12-29T23:53:56.764Z,8.63
2017-12-29T23:56:26.201Z,7.57
2017-12-29T23:58:54.370Z,7.90
